sensor_id;sensor_type;location;lat;lon;timestamp;pressure;altitude;pressure_sealevel;temperature;humidity
17260;BME280;8746;49.230;9.220;2023-04-06T00:00:25;100268.53;;;0.01;86.13
17260;BME280;8746;49.230;9.220;2023-04-06T00:02:51;100263.41;;;0.10;85.92
17260;BME280;8746;49.230;9.220;2023-04-06T00:05:18;100263.41;;;0.12;85.63
17260;BME280;8746;49.230;9.220;2023-04-06T00:07:44;100263.38;;;0.07;86.28
17260;BME280;8746;49.230;9.220;2023-04-06T00:10:10;100265.94;;;0.01;86.62
17260;BME280;8746;49.230;9.220;2023-04-06T00:12:35;100263.31;;;-0.02;86.65
17260;BME280;8746;49.230;9.220;2023-04-06T00:15:01;100259.84;;;-0.06;87.52
17260;BME280;8746;49.230;9.220;2023-04-06T00:17:27;100259.84;;;-0.04;87.18
17260;BME280;8746;49.230;9.220;2023-04-06T00:19:53;100254.78;;;0.11;87.12
17260;BME280;8746;49.230;9.220;2023-04-06T00:22:18;100250.44;;;0.12;86.88
17260;BME280;8746;49.230;9.220;2023-04-06T00:24:43;100255.50;;;-0.08;86.95
17260;BME280;8746;49.230;9.220;2023-04-06T00:27:09;100251.91;;;-0.20;87.65
17260;BME280;8746;49.230;9.220;2023-04-06T00:29:34;100256.19;;;-0.26;88.93
17260;BME280;8746;49.230;9.220;2023-04-06T00:32:00;100257.91;;;-0.28;88.58
17260;BME280;8746;49.230;9.220;2023-04-06T00:34:25;100254.44;;;-0.30;89.56
17260;BME280;8746;49.230;9.220;2023-04-06T00:36:51;100249.25;;;-0.29;89.39
17260;BME280;8746;49.230;9.220;2023-04-06T00:39:16;100251.00;;;-0.28;89.44
17260;BME280;8746;49.230;9.220;2023-04-06T00:41:46;100243.25;;;-0.25;89.17
17260;BME280;8746;49.230;9.220;2023-04-06T00:44:11;100243.19;;;-0.29;88.63
17260;BME280;8746;49.230;9.220;2023-04-06T00:46:37;100244.97;;;-0.27;89.39
17260;BME280;8746;49.230;9.220;2023-04-06T00:49:02;100241.53;;;-0.21;88.74
17260;BME280;8746;49.230;9.220;2023-04-06T00:51:27;100238.03;;;-0.26;87.63
17260;BME280;8746;49.230;9.220;2023-04-06T00:53:53;100233.59;;;-0.40;88.32
17260;BME280;8746;49.230;9.220;2023-04-06T00:56:19;100235.34;;;-0.37;88.61
17260;BME280;8746;49.230;9.220;2023-04-06T00:58:46;100237.94;;;-0.36;89.01
17260;BME280;8746;49.230;9.220;2023-04-06T01:01:11;100235.34;;;-0.37;88.56
17260;BME280;8746;49.230;9.220;2023-04-06T01:03:37;100234.38;;;-0.50;88.22
17260;BME280;8746;49.230;9.220;2023-04-06T01:06:02;100234.22;;;-0.64;88.96
17260;BME280;8746;49.230;9.220;2023-04-06T01:08:28;100236.03;;;-0.60;89.40
17260;BME280;8746;49.230;9.220;2023-04-06T01:10:54;100233.50;;;-0.54;89.39
17260;BME280;8746;49.230;9.220;2023-04-06T01:13:19;100235.13;;;-0.62;88.88
17260;BME280;8746;49.230;9.220;2023-04-06T01:15:45;100230.75;;;-0.68;88.69
17260;BME280;8746;49.230;9.220;2023-04-06T01:18:11;100229.94;;;-0.62;89.53
17260;BME280;8746;49.230;9.220;2023-04-06T01:20:39;100238.56;;;-0.63;89.27
17260;BME280;8746;49.230;9.220;2023-04-06T01:23:04;100229.88;;;-0.68;89.46
17260;BME280;8746;49.230;9.220;2023-04-06T01:25:29;100231.63;;;-0.64;89.76
17260;BME280;8746;49.230;9.220;2023-04-06T01:27:55;100228.09;;;-0.75;89.56
17260;BME280;8746;49.230;9.220;2023-04-06T01:30:20;100224.59;;;-0.76;89.79
17260;BME280;8746;49.230;9.220;2023-04-06T01:32:46;100217.72;;;-0.72;90.33
17260;BME280;8746;49.230;9.220;2023-04-06T01:35:11;100226.38;;;-0.73;90.40
17260;BME280;8746;49.230;9.220;2023-04-06T01:37:36;100221.19;;;-0.73;89.76
17260;BME280;8746;49.230;9.220;2023-04-06T01:40:02;100229.81;;;-0.73;90.14
17260;BME280;8746;49.230;9.220;2023-04-06T01:42:28;100216.81;;;-0.79;90.09
17260;BME280;8746;49.230;9.220;2023-04-06T01:44:53;100226.31;;;-0.79;89.36
17260;BME280;8746;49.230;9.220;2023-04-06T01:47:19;100223.69;;;-0.83;90.42
17260;BME280;8746;49.230;9.220;2023-04-06T01:49:51;100219.41;;;-0.81;90.04
17260;BME280;8746;49.230;9.220;2023-04-06T01:52:17;100215.91;;;-0.81;90.60
17260;BME280;8746;49.230;9.220;2023-04-06T01:54:42;100215.06;;;-0.83;90.00
17260;BME280;8746;49.230;9.220;2023-04-06T01:57:10;100213.38;;;-0.78;90.77
17260;BME280;8746;49.230;9.220;2023-04-06T01:59:35;100217.66;;;-0.78;90.30
17260;BME280;8746;49.230;9.220;2023-04-06T02:02:01;100206.50;;;-0.73;90.16
17260;BME280;8746;49.230;9.220;2023-04-06T02:04:26;100209.16;;;-0.70;89.68
17260;BME280;8746;49.230;9.220;2023-04-06T02:06:51;100215.97;;;-0.79;89.45
17260;BME280;8746;49.230;9.220;2023-04-06T02:09:17;100214.22;;;-0.77;89.51
17260;BME280;8746;49.230;9.220;2023-04-06T02:11:42;100210.78;;;-0.79;89.71
17260;BME280;8746;49.230;9.220;2023-04-06T02:14:07;100211.56;;;-0.84;90.10
17260;BME280;8746;49.230;9.220;2023-04-06T02:16:33;100205.53;;;-0.84;90.06
17260;BME280;8746;49.230;9.220;2023-04-06T02:18:58;100206.38;;;-0.85;90.59
17260;BME280;8746;49.230;9.220;2023-04-06T02:21:23;100204.72;;;-0.80;90.49
17260;BME280;8746;49.230;9.220;2023-04-06T02:23:49;100201.28;;;-0.79;90.96
17260;BME280;8746;49.230;9.220;2023-04-06T02:26:14;100210.56;;;-0.98;90.82
17260;BME280;8746;49.230;9.220;2023-04-06T02:28:40;100207.13;;;-0.97;91.30
17260;BME280;8746;49.230;9.220;2023-04-06T02:31:05;100210.72;;;-0.83;91.46
17260;BME280;8746;49.230;9.220;2023-04-06T02:33:30;100202.97;;;-0.83;91.32
17260;BME280;8746;49.230;9.220;2023-04-06T02:35:56;100203.75;;;-0.90;90.66
17260;BME280;8746;49.230;9.220;2023-04-06T02:38:21;100200.19;;;-0.98;90.66
17260;BME280;8746;49.230;9.220;2023-04-06T02:40:46;100202.72;;;-1.06;91.64
17260;BME280;8746;49.230;9.220;2023-04-06T02:43:12;100195.72;;;-1.15;92.29
17260;BME280;8746;49.230;9.220;2023-04-06T02:45:37;100199.22;;;-1.11;92.72
17260;BME280;8746;49.230;9.220;2023-04-06T02:48:02;100195.78;;;-1.10;92.24
17260;BME280;8746;49.230;9.220;2023-04-06T02:50:28;100197.47;;;-1.10;92.01
17260;BME280;8746;49.230;9.220;2023-04-06T02:52:53;100198.22;;;-1.22;93.16
17260;BME280;8746;49.230;9.220;2023-04-06T02:55:18;100191.31;;;-1.19;93.38
17260;BME280;8746;49.230;9.220;2023-04-06T02:57:45;100200.03;;;-1.14;92.99
17260;BME280;8746;49.230;9.220;2023-04-06T03:00:11;100190.47;;;-1.21;92.52
17260;BME280;8746;49.230;9.220;2023-04-06T03:02:37;100200.81;;;-1.19;93.00
17260;BME280;8746;49.230;9.220;2023-04-06T03:05:03;100198.22;;;-1.21;92.97
17260;BME280;8746;49.230;9.220;2023-04-06T03:07:28;100194.81;;;-1.18;93.06
17260;BME280;8746;49.230;9.220;2023-04-06T03:09:54;100195.69;;;-1.16;93.14
17260;BME280;8746;49.230;9.220;2023-04-06T03:12:20;100199.03;;;-1.25;93.17
17260;BME280;8746;49.230;9.220;2023-04-06T03:14:45;100201.66;;;-1.23;93.54
17260;BME280;8746;49.230;9.220;2023-04-06T03:17:11;100204.19;;;-1.26;93.50
17260;BME280;8746;49.230;9.220;2023-04-06T03:19:36;100193.78;;;-1.31;93.52
17260;BME280;8746;49.230;9.220;2023-04-06T03:22:02;100195.28;;;-1.50;94.50
17260;BME280;8746;49.230;9.220;2023-04-06T03:24:27;100192.78;;;-1.42;94.74
17260;BME280;8746;49.230;9.220;2023-04-06T03:26:53;100194.66;;;-1.29;94.16
17260;BME280;8746;49.230;9.220;2023-04-06T03:29:18;100198.03;;;-1.36;94.12
17260;BME280;8746;49.230;9.220;2023-04-06T03:31:43;100204.13;;;-1.33;93.78
17260;BME280;8746;49.230;9.220;2023-04-06T03:34:09;100199.84;;;-1.29;93.81
17260;BME280;8746;49.230;9.220;2023-04-06T03:36:35;100206.63;;;-1.37;93.19
17260;BME280;8746;49.230;9.220;2023-04-06T03:39:00;100211.06;;;-1.29;93.30
17260;BME280;8746;49.230;9.220;2023-04-06T03:41:25;100203.22;;;-1.36;92.28
17260;BME280;8746;49.230;9.220;2023-04-06T03:43:52;100214.25;;;-1.48;92.79
17260;BME280;8746;49.230;9.220;2023-04-06T03:46:17;100216.91;;;-1.47;93.89
17260;BME280;8746;49.230;9.220;2023-04-06T03:48:42;100210.00;;;-1.45;93.32
17260;BME280;8746;49.230;9.220;2023-04-06T03:51:08;100214.38;;;-1.40;93.08
17260;BME280;8746;49.230;9.220;2023-04-06T03:53:33;100211.75;;;-1.42;93.37
17260;BME280;8746;49.230;9.220;2023-04-06T03:55:59;100220.34;;;-1.45;92.78
17260;BME280;8746;49.230;9.220;2023-04-06T03:58:24;100222.06;;;-1.47;93.37
17260;BME280;8746;49.230;9.220;2023-04-06T04:00:50;100220.41;;;-1.41;93.82
17260;BME280;8746;49.230;9.220;2023-04-06T04:03:15;100223.69;;;-1.53;93.15
17260;BME280;8746;49.230;9.220;2023-04-06T04:05:41;100215.84;;;-1.58;93.42
17260;BME280;8746;49.230;9.220;2023-04-06T04:08:08;100222.75;;;-1.58;92.65
17260;BME280;8746;49.230;9.220;2023-04-06T04:10:33;100223.50;;;-1.67;93.12
17260;BME280;8746;49.230;9.220;2023-04-06T04:12:59;100223.44;;;-1.70;93.78
17260;BME280;8746;49.230;9.220;2023-04-06T04:15:24;100222.59;;;-1.72;94.53
17260;BME280;8746;49.230;9.220;2023-04-06T04:17:49;100223.50;;;-1.67;94.32
17260;BME280;8746;49.230;9.220;2023-04-06T04:20:16;100226.09;;;-1.66;94.33
17260;BME280;8746;49.230;9.220;2023-04-06T04:22:41;100232.06;;;-1.71;93.83
17260;BME280;8746;49.230;9.220;2023-04-06T04:25:07;100233.69;;;-1.80;94.13
17260;BME280;8746;49.230;9.220;2023-04-06T04:27:32;100231.97;;;-1.78;94.80
17260;BME280;8746;49.230;9.220;2023-04-06T04:29:58;100231.03;;;-1.83;95.81
17260;BME280;8746;49.230;9.220;2023-04-06T04:32:23;100232.59;;;-1.96;95.92
17260;BME280;8746;49.230;9.220;2023-04-06T04:34:52;100235.09;;;-2.00;97.26
17260;BME280;8746;49.230;9.220;2023-04-06T04:37:18;100236.66;;;-2.12;98.42
17260;BME280;8746;49.230;9.220;2023-04-06T04:39:45;100231.34;;;-2.18;98.69
17260;BME280;8746;49.230;9.220;2023-04-06T04:42:10;100235.78;;;-2.11;98.73
17260;BME280;8746;49.230;9.220;2023-04-06T04:44:36;100240.19;;;-2.03;98.96
17260;BME280;8746;49.230;9.220;2023-04-06T04:47:01;100234.19;;;-2.02;98.01
17260;BME280;8746;49.230;9.220;2023-04-06T04:49:26;100239.34;;;-2.04;97.39
17260;BME280;8746;49.230;9.220;2023-04-06T04:51:52;100239.44;;;-1.99;97.18
17260;BME280;8746;49.230;9.220;2023-04-06T04:54:18;100236.75;;;-2.04;97.16
17260;BME280;8746;49.230;9.220;2023-04-06T04:56:44;100237.63;;;-2.03;97.18
17260;BME280;8746;49.230;9.220;2023-04-06T04:59:10;100241.13;;;-2.00;97.73
17260;BME280;8746;49.230;9.220;2023-04-06T05:01:35;100247.22;;;-1.96;97.21
17260;BME280;8746;49.230;9.220;2023-04-06T05:04:00;100245.63;;;-1.88;96.67
17260;BME280;8746;49.230;9.220;2023-04-06T05:06:26;100250.78;;;-1.88;95.39
17260;BME280;8746;49.230;9.220;2023-04-06T05:08:51;100245.63;;;-1.86;94.69
17260;BME280;8746;49.230;9.220;2023-04-06T05:11:16;100252.28;;;-2.02;94.81
17260;BME280;8746;49.230;9.220;2023-04-06T05:13:42;100254.66;;;-2.16;95.41
17260;BME280;8746;49.230;9.220;2023-04-06T05:16:07;100255.69;;;-2.06;95.52
17260;BME280;8746;49.230;9.220;2023-04-06T05:18:33;100260.97;;;-1.97;95.80
17260;BME280;8746;49.230;9.220;2023-04-06T05:20:58;100261.13;;;-1.89;96.07
17260;BME280;8746;49.230;9.220;2023-04-06T05:23:24;100264.66;;;-1.83;96.14
17260;BME280;8746;49.230;9.220;2023-04-06T05:25:50;100267.59;;;-1.59;95.53
17260;BME280;8746;49.230;9.220;2023-04-06T05:28:16;100270.44;;;-1.41;94.27
17260;BME280;8746;49.230;9.220;2023-04-06T05:30:42;100272.31;;;-1.29;92.85
17260;BME280;8746;49.230;9.220;2023-04-06T05:33:09;100267.97;;;-1.33;91.71
17260;BME280;8746;49.230;9.220;2023-04-06T05:35:34;100274.00;;;-1.33;92.37
17260;BME280;8746;49.230;9.220;2023-04-06T05:38:00;100275.00;;;-1.23;92.52
17260;BME280;8746;49.230;9.220;2023-04-06T05:40:25;100273.25;;;-1.24;92.43
17260;BME280;8746;49.230;9.220;2023-04-06T05:42:51;100272.41;;;-1.24;92.55
17260;BME280;8746;49.230;9.220;2023-04-06T05:45:16;100273.41;;;-1.11;92.43
17260;BME280;8746;49.230;9.220;2023-04-06T05:47:44;100268.16;;;-1.18;92.30
17260;BME280;8746;49.230;9.220;2023-04-06T05:50:11;100277.66;;;-1.17;92.71
17260;BME280;8746;49.230;9.220;2023-04-06T05:52:36;100270.78;;;-1.15;92.60
17260;BME280;8746;49.230;9.220;2023-04-06T05:55:03;100272.53;;;-1.12;92.92
17260;BME280;8746;49.230;9.220;2023-04-06T05:57:28;100271.78;;;-1.03;93.10
17260;BME280;8746;49.230;9.220;2023-04-06T05:59:53;100274.31;;;-1.09;93.53
17260;BME280;8746;49.230;9.220;2023-04-06T06:02:20;100282.06;;;-1.09;94.57
17260;BME280;8746;49.230;9.220;2023-04-06T06:04:46;100283.06;;;-0.98;94.96
17260;BME280;8746;49.230;9.220;2023-04-06T06:07:11;100278.75;;;-0.99;94.31
17260;BME280;8746;49.230;9.220;2023-04-06T06:09:37;100281.38;;;-0.96;94.08
17260;BME280;8746;49.230;9.220;2023-04-06T06:12:02;100282.28;;;-0.91;93.78
17260;BME280;8746;49.230;9.220;2023-04-06T06:14:28;100279.84;;;-0.80;94.32
17260;BME280;8746;49.230;9.220;2023-04-06T06:16:56;100276.56;;;-0.63;94.29
17260;BME280;8746;49.230;9.220;2023-04-06T06:19:21;100282.69;;;-0.55;93.39
17260;BME280;8746;49.230;9.220;2023-04-06T06:21:47;100278.41;;;-0.52;92.57
17260;BME280;8746;49.230;9.220;2023-04-06T06:24:12;100282.84;;;-0.40;92.39
17260;BME280;8746;49.230;9.220;2023-04-06T06:26:38;100273.38;;;-0.36;91.96
17260;BME280;8746;49.230;9.220;2023-04-06T06:29:05;100277.63;;;-0.43;91.85
17260;BME280;8746;49.230;9.220;2023-04-06T06:31:31;100282.22;;;-0.12;90.43
17260;BME280;8746;49.230;9.220;2023-04-06T06:33:56;100280.63;;;0.04;87.72
17260;BME280;8746;49.230;9.220;2023-04-06T06:36:21;100282.38;;;0.03;87.12
17260;BME280;8746;49.230;9.220;2023-04-06T06:38:47;100283.22;;;0.02;86.93
17260;BME280;8746;49.230;9.220;2023-04-06T06:41:12;100278.78;;;-0.10;86.69
17260;BME280;8746;49.230;9.220;2023-04-06T06:43:38;100288.41;;;-0.01;87.83
17260;BME280;8746;49.230;9.220;2023-04-06T06:46:04;100276.41;;;0.13;86.47
17260;BME280;8746;49.230;9.220;2023-04-06T06:48:30;100276.63;;;0.43;85.46
17260;BME280;8746;49.230;9.220;2023-04-06T06:50:56;100279.19;;;0.38;84.45
17260;BME280;8746;49.230;9.220;2023-04-06T06:53:21;100278.38;;;0.45;85.24
17260;BME280;8746;49.230;9.220;2023-04-06T06:55:47;100281.91;;;0.60;83.39
17260;BME280;8746;49.230;9.220;2023-04-06T06:58:14;100279.38;;;0.71;84.34
17260;BME280;8746;49.230;9.220;2023-04-06T07:00:39;100281.06;;;0.64;84.45
17260;BME280;8746;49.230;9.220;2023-04-06T07:03:04;100278.47;;;0.64;86.36
17260;BME280;8746;49.230;9.220;2023-04-06T07:05:30;100268.28;;;1.06;85.05
17260;BME280;8746;49.230;9.220;2023-04-06T07:07:55;100264.81;;;1.04;83.84
17260;BME280;8746;49.230;9.220;2023-04-06T07:10:21;100280.50;;;1.30;82.99
17260;BME280;8746;49.230;9.220;2023-04-06T07:12:47;100278.69;;;1.12;81.06
17260;BME280;8746;49.230;9.220;2023-04-06T07:15:13;100277.03;;;1.33;83.19
17260;BME280;8746;49.230;9.220;2023-04-06T07:17:38;100275.28;;;1.24;82.25
17260;BME280;8746;49.230;9.220;2023-04-06T07:20:06;100276.97;;;1.11;82.00
17260;BME280;8746;49.230;9.220;2023-04-06T07:22:32;100274.41;;;1.28;82.76
17260;BME280;8746;49.230;9.220;2023-04-06T07:24:57;100276.22;;;1.44;82.32
17260;BME280;8746;49.230;9.220;2023-04-06T07:27:22;100273.66;;;1.74;81.70
17260;BME280;8746;49.230;9.220;2023-04-06T07:29:48;100271.94;;;1.81;80.81
17260;BME280;8746;49.230;9.220;2023-04-06T07:32:13;100272.78;;;1.80;80.68
17260;BME280;8746;49.230;9.220;2023-04-06T07:34:38;100278.03;;;1.98;80.09
17260;BME280;8746;49.230;9.220;2023-04-06T07:37:04;100279.75;;;2.02;79.43
17260;BME280;8746;49.230;9.220;2023-04-06T07:39:29;100276.25;;;2.30;79.50
17260;BME280;8746;49.230;9.220;2023-04-06T07:41:55;100279.72;;;2.46;78.98
17260;BME280;8746;49.230;9.220;2023-04-06T07:44:20;100286.63;;;2.59;79.72
17260;BME280;8746;49.230;9.220;2023-04-06T07:46:46;100288.38;;;2.63;76.32
17260;BME280;8746;49.230;9.220;2023-04-06T07:49:11;100281.34;;;2.87;76.75
17260;BME280;8746;49.230;9.220;2023-04-06T07:51:39;100274.34;;;3.06;75.81
17260;BME280;8746;49.230;9.220;2023-04-06T07:54:05;100269.06;;;3.23;75.70
17260;BME280;8746;49.230;9.220;2023-04-06T07:56:30;100271.72;;;3.12;72.26
17260;BME280;8746;49.230;9.220;2023-04-06T07:58:56;100273.38;;;3.26;72.01
17260;BME280;8746;49.230;9.220;2023-04-06T08:01:23;100269.03;;;3.26;72.33
17260;BME280;8746;49.230;9.220;2023-04-06T08:03:48;100261.97;;;3.44;71.58
17260;BME280;8746;49.230;9.220;2023-04-06T08:06:15;100268.84;;;3.63;71.55
17260;BME280;8746;49.230;9.220;2023-04-06T08:08:41;100260.94;;;3.71;71.45
17260;BME280;8746;49.230;9.220;2023-04-06T08:11:07;100263.66;;;3.54;70.72
17260;BME280;8746;49.230;9.220;2023-04-06T08:13:33;100261.84;;;3.68;70.97
17260;BME280;8746;49.230;9.220;2023-04-06T08:15:58;100260.78;;;3.94;70.11
17260;BME280;8746;49.230;9.220;2023-04-06T08:18:25;100256.44;;;3.93;70.73
17260;BME280;8746;49.230;9.220;2023-04-06T08:20:50;100248.59;;;3.93;70.88
17260;BME280;8746;49.230;9.220;2023-04-06T08:23:16;100248.72;;;3.79;70.96
17260;BME280;8746;49.230;9.220;2023-04-06T08:25:42;100259.22;;;3.67;69.42
17260;BME280;8746;49.230;9.220;2023-04-06T08:28:07;100251.50;;;3.48;70.62
17260;BME280;8746;49.230;9.220;2023-04-06T08:30:34;100248.84;;;3.59;70.53
17260;BME280;8746;49.230;9.220;2023-04-06T08:33:00;100253.97;;;3.75;70.51
17260;BME280;8746;49.230;9.220;2023-04-06T08:35:27;100258.03;;;4.10;71.36
17260;BME280;8746;49.230;9.220;2023-04-06T08:37:52;100247.19;;;4.50;71.47
17260;BME280;8746;49.230;9.220;2023-04-06T08:40:18;100243.47;;;4.73;69.89
17260;BME280;8746;49.230;9.220;2023-04-06T08:42:52;100251.19;;;4.85;68.39
17260;BME280;8746;49.230;9.220;2023-04-06T08:45:17;100245.75;;;5.02;67.12
17260;BME280;8746;49.230;9.220;2023-04-06T08:47:46;100246.81;;;4.84;65.74
17260;BME280;8746;49.230;9.220;2023-04-06T08:50:13;100241.75;;;4.72;65.03
17260;BME280;8746;49.230;9.220;2023-04-06T08:52:40;100241.66;;;4.79;64.78
17260;BME280;8746;49.230;9.220;2023-04-06T08:55:06;100241.97;;;5.25;63.87
17260;BME280;8746;49.230;9.220;2023-04-06T08:57:33;100245.97;;;5.51;63.41
17260;BME280;8746;49.230;9.220;2023-04-06T09:00:01;100244.09;;;5.60;63.47
17260;BME280;8746;49.230;9.220;2023-04-06T09:02:27;100241.97;;;5.84;61.00
17260;BME280;8746;49.230;9.220;2023-04-06T09:04:53;100234.00;;;5.90;60.45
17260;BME280;8746;49.230;9.220;2023-04-06T09:07:18;100233.84;;;6.04;61.27
17260;BME280;8746;49.230;9.220;2023-04-06T09:09:44;100227.28;;;6.29;60.02
17260;BME280;8746;49.230;9.220;2023-04-06T09:12:29;100225.00;;;6.58;60.76
17260;BME280;8746;49.230;9.220;2023-04-06T09:14:56;100219.25;;;6.83;57.88
17260;BME280;8746;49.230;9.220;2023-04-06T09:17:23;100216.59;;;6.86;56.32
17260;BME280;8746;49.230;9.220;2023-04-06T09:19:49;100220.47;;;7.09;54.63
17260;BME280;8746;49.230;9.220;2023-04-06T09:22:14;100219.13;;;7.32;55.45
17260;BME280;8746;49.230;9.220;2023-04-06T09:24:51;100222.31;;;7.45;56.88
17260;BME280;8746;49.230;9.220;2023-04-06T09:27:17;100215.13;;;7.53;55.77
17260;BME280;8746;49.230;9.220;2023-04-06T09:29:44;100209.50;;;7.31;53.61
17260;BME280;8746;49.230;9.220;2023-04-06T09:32:10;100204.09;;;6.98;52.32
17260;BME280;8746;49.230;9.220;2023-04-06T09:34:37;100205.72;;;7.44;54.38
17260;BME280;8746;49.230;9.220;2023-04-06T09:37:17;100199.50;;;7.83;54.88
17260;BME280;8746;49.230;9.220;2023-04-06T09:39:43;100201.88;;;7.95;53.35
17260;BME280;8746;49.230;9.220;2023-04-06T09:42:09;100196.28;;;8.08;53.42
17260;BME280;8746;49.230;9.220;2023-04-06T09:44:34;100199.72;;;8.10;51.71
17260;BME280;8746;49.230;9.220;2023-04-06T09:47:00;100195.16;;;8.51;50.00
17260;BME280;8746;49.230;9.220;2023-04-06T09:49:27;100192.66;;;8.78;51.07
17260;BME280;8746;49.230;9.220;2023-04-06T09:51:59;100187.75;;;8.65;47.19
17260;BME280;8746;49.230;9.220;2023-04-06T09:54:28;100184.13;;;8.70;47.28
17260;BME280;8746;49.230;9.220;2023-04-06T10:00:07;100190.19;;;9.32;45.96
17260;BME280;8746;49.230;9.220;2023-04-06T10:05:20;100184.47;;;10.26;47.04
17260;BME280;8746;49.230;9.220;2023-04-06T10:07:50;100177.09;;;10.36;42.17
17260;BME280;8746;49.230;9.220;2023-04-06T10:10:17;100174.88;;;10.23;42.69
17260;BME280;8746;49.230;9.220;2023-04-06T10:12:43;100178.88;;;10.84;44.61
17260;BME280;8746;49.230;9.220;2023-04-06T10:15:10;100178.19;;;11.25;43.67
17260;BME280;8746;49.230;9.220;2023-04-06T10:17:35;100181.22;;;11.60;40.79
17260;BME280;8746;49.230;9.220;2023-04-06T10:23:08;100172.00;;;11.91;40.08
17260;BME280;8746;49.230;9.220;2023-04-06T10:25:39;100171.66;;;12.00;38.48
17260;BME280;8746;49.230;9.220;2023-04-06T10:28:06;100167.97;;;12.25;37.73
17260;BME280;8746;49.230;9.220;2023-04-06T10:30:33;100163.09;;;12.56;37.35
17260;BME280;8746;49.230;9.220;2023-04-06T10:32:58;100156.72;;;12.41;36.18
17260;BME280;8746;49.230;9.220;2023-04-06T10:35:24;100158.75;;;12.34;37.27
17260;BME280;8746;49.230;9.220;2023-04-06T10:38:03;100167.88;;;12.27;36.39
17260;BME280;8746;49.230;9.220;2023-04-06T10:40:29;100158.69;;;12.35;36.84
17260;BME280;8746;49.230;9.220;2023-04-06T10:43:10;100155.72;;;12.62;35.83
17260;BME280;8746;49.230;9.220;2023-04-06T10:45:36;100158.13;;;13.07;37.01
17260;BME280;8746;49.230;9.220;2023-04-06T10:48:15;100159.72;;;13.28;34.28
17260;BME280;8746;49.230;9.220;2023-04-06T10:50:46;100150.66;;;13.71;36.11
17260;BME280;8746;49.230;9.220;2023-04-06T10:53:20;100145.19;;;13.91;35.45
17260;BME280;8746;49.230;9.220;2023-04-06T10:55:47;100141.03;;;14.54;33.70
17260;BME280;8746;49.230;9.220;2023-04-06T10:58:14;100140.25;;;14.36;32.33
17260;BME280;8746;49.230;9.220;2023-04-06T11:00:49;100154.84;;;13.57;33.22
17260;BME280;8746;49.230;9.220;2023-04-06T11:03:15;100136.25;;;14.27;33.76
17260;BME280;8746;49.230;9.220;2023-04-06T11:05:49;100150.44;;;13.75;32.49
17260;BME280;8746;49.230;9.220;2023-04-06T11:08:30;100133.97;;;14.37;30.92
17260;BME280;8746;49.230;9.220;2023-04-06T11:16:20;100128.75;;;14.36;30.97
17260;BME280;8746;49.230;9.220;2023-04-06T11:19:00;100132.84;;;14.93;31.46
17260;BME280;8746;49.230;9.220;2023-04-06T11:21:45;100132.63;;;15.28;33.33
17260;BME280;8746;49.230;9.220;2023-04-06T11:24:17;100128.31;;;14.61;29.43
17260;BME280;8746;49.230;9.220;2023-04-06T11:26:47;100124.19;;;14.55;30.87
17260;BME280;8746;49.230;9.220;2023-04-06T11:29:16;100122.63;;;15.01;31.44
17260;BME280;8746;49.230;9.220;2023-04-06T11:31:48;100115.53;;;15.01;29.70
17260;BME280;8746;49.230;9.220;2023-04-06T11:34:23;100112.06;;;15.31;28.81
17260;BME280;8746;49.230;9.220;2023-04-06T11:36:54;100110.03;;;14.72;30.26
17260;BME280;8746;49.230;9.220;2023-04-06T11:39:23;100113.28;;;15.26;30.50
17260;BME280;8746;49.230;9.220;2023-04-06T11:41:53;100104.22;;;15.60;29.35
17260;BME280;8746;49.230;9.220;2023-04-06T11:47:02;100105.72;;;15.34;29.18
17260;BME280;8746;49.230;9.220;2023-04-06T11:49:29;100095.19;;;15.63;29.68
17260;BME280;8746;49.230;9.220;2023-04-06T11:51:55;100102.13;;;15.96;28.25
17260;BME280;8746;49.230;9.220;2023-04-06T11:54:35;100097.69;;;16.25;28.79
17260;BME280;8746;49.230;9.220;2023-04-06T11:57:04;100101.59;;;15.75;27.85
17260;BME280;8746;49.230;9.220;2023-04-06T11:59:31;100093.66;;;14.31;28.77
17260;BME280;8746;49.230;9.220;2023-04-06T12:01:57;100094.44;;;14.33;30.16
17260;BME280;8746;49.230;9.220;2023-04-06T12:04:23;100087.31;;;14.67;30.67
17260;BME280;8746;49.230;9.220;2023-04-06T12:06:48;100086.22;;;15.03;29.14
17260;BME280;8746;49.230;9.220;2023-04-06T12:09:14;100087.16;;;14.86;29.94
17260;BME280;8746;49.230;9.220;2023-04-06T12:11:40;100090.88;;;14.16;30.16
17260;BME280;8746;49.230;9.220;2023-04-06T12:14:06;100087.09;;;13.69;29.80
17260;BME280;8746;49.230;9.220;2023-04-06T12:16:33;100086.03;;;13.37;32.23
17260;BME280;8746;49.230;9.220;2023-04-06T12:18:59;100092.69;;;13.45;30.12
17260;BME280;8746;49.230;9.220;2023-04-06T12:21:26;100087.97;;;12.96;32.47
17260;BME280;8746;49.230;9.220;2023-04-06T12:23:52;100086.41;;;13.66;33.14
17260;BME280;8746;49.230;9.220;2023-04-06T12:26:17;100083.59;;;13.51;30.77
17260;BME280;8746;49.230;9.220;2023-04-06T12:28:43;100073.13;;;13.48;31.33
17260;BME280;8746;49.230;9.220;2023-04-06T12:31:15;100073.88;;;13.33;30.63
17260;BME280;8746;49.230;9.220;2023-04-06T12:33:40;100073.28;;;13.62;31.62
17260;BME280;8746;49.230;9.220;2023-04-06T12:36:12;100073.59;;;13.39;31.31
17260;BME280;8746;49.230;9.220;2023-04-06T12:38:37;100070.94;;;13.39;33.30
17260;BME280;8746;49.230;9.220;2023-04-06T12:41:05;100067.38;;;13.57;32.46
17260;BME280;8746;49.230;9.220;2023-04-06T12:43:30;100062.47;;;13.50;31.09
17260;BME280;8746;49.230;9.220;2023-04-06T12:45:56;100058.25;;;13.81;30.85
17260;BME280;8746;49.230;9.220;2023-04-06T12:48:21;100060.59;;;13.69;30.84
17260;BME280;8746;49.230;9.220;2023-04-06T12:51:04;100056.56;;;14.13;32.19
17260;BME280;8746;49.230;9.220;2023-04-06T12:53:30;100057.84;;;13.71;31.43
17260;BME280;8746;49.230;9.220;2023-04-06T12:55:56;100053.78;;;13.81;31.00
17260;BME280;8746;49.230;9.220;2023-04-06T12:58:23;100042.06;;;14.03;31.53
17260;BME280;8746;49.230;9.220;2023-04-06T13:00:49;100050.94;;;14.02;32.15
17260;BME280;8746;49.230;9.220;2023-04-06T13:03:15;100047.94;;;14.25;32.58
17260;BME280;8746;49.230;9.220;2023-04-06T13:05:44;100046.59;;;14.50;33.04
17260;BME280;8746;49.230;9.220;2023-04-06T13:08:10;100044.38;;;14.58;31.32
17260;BME280;8746;49.230;9.220;2023-04-06T13:10:35;100042.63;;;14.25;31.29
17260;BME280;8746;49.230;9.220;2023-04-06T13:13:01;100046.94;;;13.77;31.91
17260;BME280;8746;49.230;9.220;2023-04-06T13:15:26;100041.81;;;13.74;33.44